Time;durP1;ratioP1;P1;durP2;ratioP2;P2;SDS_P1;SDS_P2;PMS_P1;PMS_P2;Temp;Humidity;BMP_temperature;BMP_pressure;BME280_temperature;BME280_humidity;BME280_pressure;Samples;Min_cycle;Max_cycle;Signal;HPM_P1;HPM_P2
2021/10/22 00:02:18;;;;;;;6.65;3.20;;;;;;;;;;7393287;19;20085;-60
2021/10/22 00:04:45;;;;;;;7.05;2.88;;;;;;;;;;7393807;19;20010;-59
2021/10/22 00:07:14;;;;;;;7.80;2.25;;;;;;;;;;7394027;19;20011;-58
2021/10/22 00:09:41;;;;;;;4.97;2.00;;;;;;;;;;7392575;19;20333;-58
2021/10/22 00:12:08;;;;;;;5.28;2.13;;;;;;;;;;7393363;19;20406;-59
2021/10/22 00:14:36;;;;;;;7.07;2.33;;;;;;;;;;7395822;19;20074;-59
2021/10/22 00:17:04;;;;;;;4.45;1.90;;;;;;;;;;7392194;19;20038;-58
2021/10/22 00:19:32;;;;;;;3.78;2.10;;;;;;;;;;7392908;19;20011;-58
2021/10/22 00:22:00;;;;;;;5.97;2.15;;;;;;;;;;7392374;19;20015;-60
2021/10/22 00:24:28;;;;;;;4.45;1.70;;;;;;;;;;7391389;19;20014;-59
2021/10/22 00:26:56;;;;;;;7.28;2.10;;;;;;;;;;7392276;19;20014;-59
2021/10/22 00:29:23;;;;;;;5.47;1.60;;;;;;;;;;7392605;19;20021;-59
2021/10/22 00:31:51;;;;;;;6.05;2.00;;;;;;;;;;7392159;19;20036;-58
2021/10/22 00:34:18;;;;;;;7.65;2.15;;;;;;;;;;7392003;19;20097;-58
2021/10/22 00:36:46;;;;;;;6.03;1.85;;;;;;;;;;7388427;19;20003;-59
2021/10/22 00:39:13;;;;;;;3.35;1.60;;;;;;;;;;7392239;19;20010;-59
2021/10/22 00:41:42;;;;;;;17.38;6.00;;;;;;;;;;7391905;19;20089;-60
2021/10/22 00:44:10;;;;;;;10.57;2.58;;;;;;;;;;7391804;19;20519;-59
2021/10/22 00:46:41;;;;;;;10.98;2.17;;;;;;;;;;7392004;19;20014;-59
2021/10/22 00:49:10;;;;;;;5.57;2.08;;;;;;;;;;7387969;19;20074;-58
2021/10/22 00:51:39;;;;;;;6.95;2.42;;;;;;;;;;7391703;19;20006;-58
2021/10/22 00:54:10;;;;;;;8.30;1.73;;;;;;;;;;7391589;19;20049;-59
2021/10/22 00:56:38;;;;;;;4.30;1.90;;;;;;;;;;7390755;19;20011;-59
2021/10/22 00:59:07;;;;;;;6.15;1.75;;;;;;;;;;7390986;19;20017;-59
2021/10/22 01:01:39;;;;;;;80.93;27.15;;;;;;;;;;7391071;19;20014;-58
2021/10/22 01:04:08;;;;;;;6.25;2.63;;;;;;;;;;7390959;19;20038;-59
2021/10/22 01:06:37;;;;;;;4.50;1.92;;;;;;;;;;7392128;19;20029;-59
2021/10/22 01:09:12;;;;;;;4.95;2.20;;;;;;;;;;7391767;19;20034;-59
2021/10/22 01:11:40;;;;;;;3.97;1.60;;;;;;;;;;7391295;19;20018;-59
2021/10/22 01:14:08;;;;;;;4.13;1.13;;;;;;;;;;7392686;19;20479;-59
2021/10/22 01:16:37;;;;;;;3.92;1.40;;;;;;;;;;7389060;19;20044;-59
2021/10/22 01:19:06;;;;;;;4.82;1.10;;;;;;;;;;7391427;19;20015;-59
2021/10/22 01:21:33;;;;;;;3.22;1.20;;;;;;;;;;7390896;19;20073;-59
2021/10/22 01:24:01;;;;;;;5.78;1.20;;;;;;;;;;7390517;19;20360;-59
2021/10/22 01:26:29;;;;;;;3.88;1.48;;;;;;;;;;7390929;19;20567;-60
2021/10/22 01:28:59;;;;;;;9.52;2.70;;;;;;;;;;7390331;19;20033;-59
2021/10/22 01:31:26;;;;;;;4.78;2.03;;;;;;;;;;7392800;19;20021;-61
2021/10/22 01:33:55;;;;;;;6.90;1.52;;;;;;;;;;7390808;19;20022;-58
2021/10/22 01:36:23;;;;;;;4.05;1.20;;;;;;;;;;7389585;19;20010;-58
2021/10/22 01:38:51;;;;;;;2.97;0.90;;;;;;;;;;7390426;19;20014;-59
2021/10/22 01:41:20;;;;;;;2.00;1.00;;;;;;;;;;7389299;19;20177;-58
2021/10/22 01:43:49;;;;;;;3.08;0.90;;;;;;;;;;7389913;19;20010;-58
2021/10/22 01:46:16;;;;;;;2.97;1.23;;;;;;;;;;7389846;19;20014;-59
2021/10/22 01:48:45;;;;;;;1.52;0.70;;;;;;;;;;7393054;19;20034;-58
2021/10/22 01:51:12;;;;;;;4.88;1.10;;;;;;;;;;7396777;19;20007;-59
2021/10/22 01:53:39;;;;;;;19.60;9.18;;;;;;;;;;7397612;19;20022;-59
2021/10/22 01:56:07;;;;;;;4.97;1.10;;;;;;;;;;7396591;19;20038;-59
2021/10/22 01:58:34;;;;;;;1.73;0.80;;;;;;;;;;7394194;19;20094;-59
2021/10/22 02:01:02;;;;;;;2.08;0.90;;;;;;;;;;7397768;19;20010;-59
2021/10/22 02:03:29;;;;;;;2.58;1.08;;;;;;;;;;7396969;19;20039;-58
2021/10/22 02:05:59;;;;;;;2.60;0.88;;;;;;;;;;7397019;19;20010;-59
2021/10/22 02:08:26;;;;;;;5.20;1.20;;;;;;;;;;7399966;19;20014;-58
2021/10/22 02:10:55;;;;;;;4.53;0.90;;;;;;;;;;7397308;19;20026;-59
2021/10/22 02:13:22;;;;;;;2.58;1.00;;;;;;;;;;7397014;19;20014;-58
2021/10/22 02:15:49;;;;;;;3.35;0.90;;;;;;;;;;7397281;19;20070;-59
2021/10/22 02:18:16;;;;;;;1.63;0.80;;;;;;;;;;7394722;19;20015;-59
2021/10/22 02:20:44;;;;;;;2.15;0.80;;;;;;;;;;7397129;19;20050;-59
2021/10/22 02:23:13;;;;;;;25.10;11.82;;;;;;;;;;7395746;19;20351;-59
2021/10/22 02:25:40;;;;;;;2.17;0.90;;;;;;;;;;7397114;19;20014;-58
2021/10/22 02:28:08;;;;;;;2.15;0.82;;;;;;;;;;7397008;19;20023;-57
2021/10/22 02:30:35;;;;;;;1.85;0.85;;;;;;;;;;7395638;19;20038;-59
2021/10/22 02:33:03;;;;;;;2.95;0.60;;;;;;;;;;7392172;19;20461;-59
2021/10/22 02:35:31;;;;;;;1.60;0.60;;;;;;;;;;7395779;19;20018;-58
2021/10/22 02:37:58;;;;;;;1.05;0.57;;;;;;;;;;7394186;19;20017;-58
2021/10/22 02:40:26;;;;;;;2.03;0.70;;;;;;;;;;7395688;19;20070;-58
2021/10/22 02:42:53;;;;;;;0.82;0.50;;;;;;;;;;7395870;19;20014;-59
2021/10/22 02:45:21;;;;;;;4.13;0.50;;;;;;;;;;7396055;19;20017;-58
2021/10/22 02:47:48;;;;;;;34.83;14.15;;;;;;;;;;7398807;19;20010;-63
2021/10/22 02:50:21;;;;;;;1.65;0.70;;;;;;;;;;7395570;19;20023;-58
2021/10/22 02:52:49;;;;;;;2.83;0.63;;;;;;;;;;7395499;19;20026;-59
2021/10/22 02:55:17;;;;;;;2.05;0.50;;;;;;;;;;7393335;19;20027;-58
2021/10/22 02:57:45;;;;;;;0.60;0.52;;;;;;;;;;7393765;19;20490;-59
2021/10/22 03:00:13;;;;;;;2.65;0.70;;;;;;;;;;7394385;19;20084;-59
2021/10/22 03:02:40;;;;;;;2.13;0.70;;;;;;;;;;7396045;19;20058;-58
2021/10/22 03:05:10;;;;;;;1.45;0.60;;;;;;;;;;7393201;19;20014;-58
2021/10/22 03:07:39;;;;;;;1.00;0.63;;;;;;;;;;7395455;19;20002;-57
2021/10/22 03:10:08;;;;;;;0.90;0.75;;;;;;;;;;7394781;19;20074;-59
2021/10/22 03:12:36;;;;;;;1.40;0.65;;;;;;;;;;7394528;19;20011;-59
2021/10/22 03:15:05;;;;;;;1.83;0.68;;;;;;;;;;7398093;19;20034;-58
2021/10/22 03:17:33;;;;;;;2.10;0.50;;;;;;;;;;7392364;19;20034;-58
2021/10/22 03:20:01;;;;;;;3.58;0.77;;;;;;;;;;7397561;19;20014;-58
2021/10/22 03:22:28;;;;;;;1.27;0.60;;;;;;;;;;7395384;19;20006;-58
2021/10/22 03:24:56;;;;;;;1.10;0.50;;;;;;;;;;7394446;19;20022;-59
2021/10/22 03:27:24;;;;;;;1.23;0.80;;;;;;;;;;7397484;19;20015;-59
2021/10/22 03:29:53;;;;;;;2.08;0.70;;;;;;;;;;7394516;19;20013;-65
2021/10/22 03:32:21;;;;;;;3.85;1.02;;;;;;;;;;7392721;19;20025;-57
2021/10/22 03:34:49;;;;;;;2.10;0.57;;;;;;;;;;7394020;19;20122;-60
2021/10/22 03:37:16;;;;;;;1.27;0.60;;;;;;;;;;7391969;19;20019;-57
2021/10/22 03:39:46;;;;;;;1.02;0.60;;;;;;;;;;7394871;19;20014;-59
2021/10/22 03:42:13;;;;;;;1.23;0.50;;;;;;;;;;7393319;19;20038;-58
2021/10/22 03:44:40;;;;;;;0.45;0.38;;;;;;;;;;7393312;19;20031;-58
2021/10/22 03:47:08;;;;;;;1.63;0.60;;;;;;;;;;7392412;19;20014;-58
2021/10/22 03:49:35;;;;;;;1.50;0.50;;;;;;;;;;7393851;19;20003;-58
2021/10/22 03:52:03;;;;;;;0.85;0.50;;;;;;;;;;7393371;19;20422;-58
2021/10/22 03:54:30;;;;;;;0.80;0.50;;;;;;;;;;7393883;19;20013;-58
2021/10/22 03:56:58;;;;;;;0.88;0.50;;;;;;;;;;7392504;19;20014;-57
2021/10/22 03:59:25;;;;;;;3.65;0.82;;;;;;;;;;7393251;19;20220;-58
2021/10/22 04:01:53;;;;;;;1.00;0.50;;;;;;;;;;7392930;19;20046;-58
2021/10/22 04:04:27;;;;;;;20.63;7.35;;;;;;;;;;7393096;19;20007;-58
2021/10/22 04:06:57;;;;;;;5.10;1.40;;;;;;;;;;7393644;19;20074;-58
2021/10/22 04:09:31;;;;;;;0.43;0.43;;;;;;;;;;7393071;19;20027;-58
2021/10/22 04:11:59;;;;;;;0.57;0.50;;;;;;;;;;7390795;19;20015;-57
2021/10/22 04:14:26;;;;;;;0.60;0.40;;;;;;;;;;7395272;19;20348;-59
2021/10/22 04:16:56;;;;;;;0.80;0.47;;;;;;;;;;7392127;19;20031;-59
2021/10/22 04:19:24;;;;;;;0.77;0.57;;;;;;;;;;7391307;19;20014;-57
2021/10/22 04:21:52;;;;;;;2.28;0.60;;;;;;;;;;7391519;19;20018;-58
2021/10/22 04:24:19;;;;;;;0.50;0.50;;;;;;;;;;7392052;19;20011;-59
2021/10/22 04:26:46;;;;;;;0.77;0.43;;;;;;;;;;7392500;19;20014;-58
2021/10/22 04:29:14;;;;;;;0.52;0.50;;;;;;;;;;7392058;19;20082;-58
2021/10/22 04:31:41;;;;;;;2.65;0.60;;;;;;;;;;7390950;19;20597;-58
2021/10/22 04:34:09;;;;;;;0.77;0.45;;;;;;;;;;7392028;19;20031;-58
2021/10/22 04:36:38;;;;;;;1.33;0.47;;;;;;;;;;7391694;19;20011;-58
2021/10/22 04:41:52;;;;;;;0.77;0.40;;;;;;;;;;7391462;19;20019;-57
2021/10/22 04:44:20;;;;;;;10.73;5.10;;;;;;;;;;7391833;19;20435;-59
2021/10/22 04:46:47;;;;;;;0.93;0.50;;;;;;;;;;7391784;19;20007;-58
2021/10/22 04:49:15;;;;;;;1.85;0.60;;;;;;;;;;7390369;19;20015;-61
2021/10/22 04:51:43;;;;;;;0.65;0.50;;;;;;;;;;7391746;19;20006;-58
2021/10/22 04:54:10;;;;;;;1.65;0.63;;;;;;;;;;7391620;19;20470;-59
2021/10/22 04:56:38;;;;;;;2.53;0.50;;;;;;;;;;7391687;19;20011;-58
2021/10/22 04:59:05;;;;;;;3.03;0.57;;;;;;;;;;7389643;19;20027;-59
2021/10/22 05:01:32;;;;;;;0.80;0.60;;;;;;;;;;7391508;19;20010;-58
2021/10/22 05:04:00;;;;;;;0.60;0.60;;;;;;;;;;7390662;19;20482;-62
2021/10/22 05:06:28;;;;;;;3.33;1.00;;;;;;;;;;7391060;19;20036;-59
2021/10/22 05:08:59;;;;;;;0.75;0.50;;;;;;;;;;7391019;19;20066;-58
2021/10/22 05:11:26;;;;;;;0.75;0.50;;;;;;;;;;7391377;19;20034;-59
2021/10/22 05:13:53;;;;;;;2.47;0.73;;;;;;;;;;7390389;19;20024;-62
2021/10/22 05:16:22;;;;;;;1.45;0.60;;;;;;;;;;7390974;19;20027;-62
2021/10/22 05:18:49;;;;;;;0.50;0.40;;;;;;;;;;7388537;19;20031;-59
2021/10/22 05:21:17;;;;;;;1.30;0.70;;;;;;;;;;7391113;19;20018;-59
2021/10/22 05:23:44;;;;;;;1.10;0.70;;;;;;;;;;7389369;19;20006;-59
2021/10/22 05:26:11;;;;;;;34.55;18.02;;;;;;;;;;7390276;19;20014;-60
2021/10/22 05:28:39;;;;;;;4.72;2.47;;;;;;;;;;7389917;19;20022;-58
2021/10/22 05:31:06;;;;;;;1.70;0.90;;;;;;;;;;7389260;19;20459;-59
2021/10/22 05:33:34;;;;;;;4.45;1.90;;;;;;;;;;7389950;19;20035;-57
2021/10/22 05:36:01;;;;;;;1.00;0.60;;;;;;;;;;7391358;19;20082;-58
2021/10/22 05:38:30;;;;;;;0.98;0.65;;;;;;;;;;7388505;19;20007;-59
2021/10/22 05:40:58;;;;;;;1.27;0.75;;;;;;;;;;7389826;19;20038;-58
2021/10/22 05:43:25;;;;;;;0.93;0.60;;;;;;;;;;7388234;19;20085;-58
2021/10/22 05:45:53;;;;;;;1.63;0.68;;;;;;;;;;7388441;19;20010;-58
2021/10/22 05:48:20;;;;;;;1.40;0.82;;;;;;;;;;7383920;19;20025;-59
2021/10/22 05:50:47;;;;;;;0.70;0.70;;;;;;;;;;7384799;19;20039;-59
2021/10/22 05:53:15;;;;;;;2.00;0.80;;;;;;;;;;7385886;19;20351;-58
2021/10/22 05:55:42;;;;;;;0.60;0.60;;;;;;;;;;7385833;19;20018;-59
2021/10/22 05:58:10;;;;;;;0.82;0.73;;;;;;;;;;7386754;19;20007;-58
2021/10/22 06:00:37;;;;;;;0.60;0.50;;;;;;;;;;7388325;19;20462;-59
2021/10/22 06:03:05;;;;;;;1.58;0.57;;;;;;;;;;7388255;19;20109;-58
2021/10/22 06:05:33;;;;;;;1.02;0.50;;;;;;;;;;7389510;19;20089;-59
2021/10/22 06:08:00;;;;;;;0.70;0.50;;;;;;;;;;7388236;19;20760;-58
2021/10/22 06:10:28;;;;;;;0.52;0.50;;;;;;;;;;7387777;19;20014;-59
2021/10/22 06:12:55;;;;;;;1.17;0.68;;;;;;;;;;7387891;19;20031;-58
2021/10/22 06:15:22;;;;;;;0.40;0.40;;;;;;;;;;7393964;19;20019;-58
2021/10/22 06:17:52;;;;;;;1.05;0.60;;;;;;;;;;7388068;19;20390;-59
2021/10/22 06:20:43;;;;;;;1.98;1.38;;;;;;;;;;7388781;19;20031;-59
2021/10/22 06:25:40;;;;;;;0.40;0.40;;;;;;;;;;7387733;19;20510;-59
2021/10/22 06:28:10;;;;;;;0.63;0.40;;;;;;;;;;7388999;19;20032;-59
2021/10/22 06:30:38;;;;;;;0.60;0.60;;;;;;;;;;7389292;19;20017;-59
2021/10/22 06:33:06;;;;;;;1.33;0.50;;;;;;;;;;7385824;19;20029;-59
2021/10/22 06:35:34;;;;;;;0.50;0.50;;;;;;;;;;7389015;19;20015;-59
2021/10/22 06:38:01;;;;;;;0.60;0.50;;;;;;;;;;7395967;19;20014;-59
2021/10/22 06:40:29;;;;;;;0.50;0.50;;;;;;;;;;7392633;19;20070;-59
2021/10/22 06:42:56;;;;;;;1.55;0.65;;;;;;;;;;7396005;19;20017;-59
2021/10/22 06:45:24;;;;;;;0.35;0.35;;;;;;;;;;7396326;19;20042;-59
2021/10/22 06:47:51;;;;;;;0.40;0.40;;;;;;;;;;7395009;19;20355;-59
2021/10/22 06:50:19;;;;;;;2.22;0.40;;;;;;;;;;7396183;19;20021;-59
2021/10/22 06:52:46;;;;;;;1.73;0.40;;;;;;;;;;7394928;19;20003;-61
2021/10/22 06:55:14;;;;;;;0.63;0.43;;;;;;;;;;7396447;19;20010;-59
2021/10/22 06:57:42;;;;;;;0.50;0.50;;;;;;;;;;7394612;19;20010;-59
2021/10/22 07:00:11;;;;;;;0.85;0.50;;;;;;;;;;7393648;19;20050;-59
2021/10/22 07:02:52;;;;;;;1.10;0.50;;;;;;;;;;7395105;19;20017;-59
2021/10/22 07:05:47;;;;;;;1.02;0.50;;;;;;;;;;7395145;19;20049;-59
2021/10/22 07:08:15;;;;;;;3.67;1.30;;;;;;;;;;7395596;19;20088;-60
2021/10/22 07:10:43;;;;;;;20.63;7.97;;;;;;;;;;7393352;19;20021;-59
2021/10/22 07:13:11;;;;;;;5.00;3.00;;;;;;;;;;7394531;19;20031;-59
2021/10/22 07:15:39;;;;;;;0.57;0.50;;;;;;;;;;7398812;19;20018;-59
2021/10/22 07:18:06;;;;;;;2.55;0.70;;;;;;;;;;7395118;19;20022;-59
2021/10/22 07:20:35;;;;;;;1.30;0.50;;;;;;;;;;7397934;19;20014;-60
2021/10/22 07:23:09;;;;;;;1.45;1.20;;;;;;;;;;7394546;19;20479;-61
2021/10/22 07:25:38;;;;;;;;;;;;;;;;;;7394548;19;20021;-59
2021/10/22 07:28:15;;;;;;;0.82;0.60;;;;;;;;;;7394965;19;19959;-59
2021/10/22 07:30:46;;;;;;;0.40;0.40;;;;;;;;;;7394411;19;20073;-59
2021/10/22 07:33:14;;;;;;;0.75;0.65;;;;;;;;;;7392165;19;20014;-59
2021/10/22 07:35:42;;;;;;;0.30;0.30;;;;;;;;;;7394343;19;20010;-59
2021/10/22 07:38:10;;;;;;;1.95;1.50;;;;;;;;;;7393564;19;20017;-59
2021/10/22 07:40:40;;;;;;;1.02;0.70;;;;;;;;;;7393084;19;20018;-61
2021/10/22 07:43:08;;;;;;;4.40;3.78;;;;;;;;;;7393769;19;20018;-61
2021/10/22 07:45:36;;;;;;;1.52;1.30;;;;;;;;;;7393182;19;20003;-61
2021/10/22 07:48:04;;;;;;;0.70;0.52;;;;;;;;;;7392985;19;20018;-61
2021/10/22 07:50:32;;;;;;;1.38;0.73;;;;;;;;;;7394061;19;20034;-58
2021/10/22 07:52:59;;;;;;;0.50;0.50;;;;;;;;;;7392413;19;20053;-59
2021/10/22 07:55:26;;;;;;;4.45;2.67;;;;;;;;;;7393854;19;20018;-59
2021/10/22 07:57:54;;;;;;;1.67;1.05;;;;;;;;;;7393096;19;20022;-58
2021/10/22 08:00:22;;;;;;;0.95;0.60;;;;;;;;;;7393102;19;20027;-59
2021/10/22 08:02:49;;;;;;;1.42;1.10;;;;;;;;;;7392228;19;20081;-58
2021/10/22 08:05:19;;;;;;;0.63;0.63;;;;;;;;;;7390910;19;20023;-58
2021/10/22 08:07:46;;;;;;;0.50;0.50;;;;;;;;;;7392818;19;20566;-59
2021/10/22 08:10:14;;;;;;;1.38;0.68;;;;;;;;;;7394127;19;20062;-58
2021/10/22 08:12:42;;;;;;;2.15;1.45;;;;;;;;;;7392700;19;20010;-59
2021/10/22 08:15:16;;;;;;;4.10;3.70;;;;;;;;;;7397120;19;20018;-58
2021/10/22 08:17:43;;;;;;;8.43;7.63;;;;;;;;;;7393089;19;20011;-59
2021/10/22 08:20:17;;;;;;;1.40;1.00;;;;;;;;;;7389504;19;20002;-58
2021/10/22 08:22:44;;;;;;;0.60;0.60;;;;;;;;;;7392275;19;20601;-62
2021/10/22 08:25:14;;;;;;;0.50;0.50;;;;;;;;;;7392054;19;20011;-60
2021/10/22 08:27:45;;;;;;;0.60;0.60;;;;;;;;;;7390378;19;20011;-61
2021/10/22 08:30:16;;;;;;;0.50;0.50;;;;;;;;;;7392294;19;20010;-60
2021/10/22 08:32:50;;;;;;;0.77;0.57;;;;;;;;;;7391390;19;20507;-61
2021/10/22 08:35:18;;;;;;;;;;;;;;;;;;7389871;19;20015;-61
2021/10/22 08:37:47;;;;;;;0.47;0.47;;;;;;;;;;7388807;19;19919;-61
2021/10/22 08:40:16;;;;;;;0.30;0.30;;;;;;;;;;7386320;19;20098;-61
2021/10/22 08:42:45;;;;;;;0.38;0.38;;;;;;;;;;7388603;19;20478;-61
2021/10/22 08:45:14;;;;;;;0.50;0.40;;;;;;;;;;7388324;19;20010;-60
2021/10/22 08:47:42;;;;;;;0.82;0.63;;;;;;;;;;7388675;19;20018;-62
2021/10/22 08:50:18;;;;;;;0.40;0.40;;;;;;;;;;7389371;19;20021;-62
2021/10/22 08:52:48;;;;;;;0.70;0.43;;;;;;;;;;7392036;19;20014;-61
2021/10/22 08:55:16;;;;;;;0.30;0.30;;;;;;;;;;7391929;19;20034;-61
2021/10/22 08:57:46;;;;;;;4.38;2.80;;;;;;;;;;7391272;19;20006;-60
2021/10/22 09:00:19;;;;;;;1.05;0.57;;;;;;;;;;7388862;19;20015;-60
2021/10/22 09:02:49;;;;;;;0.73;0.73;;;;;;;;;;7393864;19;20013;-60
2021/10/22 09:05:26;;;;;;;0.50;0.50;;;;;;;;;;7391762;19;20344;-60
2021/10/22 09:07:57;;;;;;;1.13;0.77;;;;;;;;;;7391548;19;20014;-61
2021/10/22 09:10:28;;;;;;;0.68;0.68;;;;;;;;;;7390571;19;20107;-61
2021/10/22 09:12:57;;;;;;;0.70;0.60;;;;;;;;;;7391051;19;20010;-60
2021/10/22 09:15:32;;;;;;;0.40;0.40;;;;;;;;;;7394899;19;20019;-60
2021/10/22 09:18:07;;;;;;;0.50;0.50;;;;;;;;;;7390753;19;20115;-61
2021/10/22 09:20:54;;;;;;;0.60;0.60;;;;;;;;;;7389556;19;20018;-61
2021/10/22 09:23:30;;;;;;;0.85;0.50;;;;;;;;;;7389421;19;20014;-60
2021/10/22 09:26:24;;;;;;;0.57;0.57;;;;;;;;;;7390420;19;20034;-61
2021/10/22 09:28:52;;;;;;;0.43;0.40;;;;;;;;;;7390358;19;20015;-60
2021/10/22 09:31:22;;;;;;;0.70;0.70;;;;;;;;;;7390780;19;20025;-61
2021/10/22 09:33:55;;;;;;;2.17;0.60;;;;;;;;;;7392826;19;20092;-61
2021/10/22 09:36:42;;;;;;;2.23;1.87;;;;;;;;;;7390667;19;20010;-60
2021/10/22 09:39:14;;;;;;;1.40;1.13;;;;;;;;;;7389869;19;20518;-60
2021/10/22 09:42:01;;;;;;;0.80;0.60;;;;;;;;;;7389552;19;20014;-62
2021/10/22 09:44:40;;;;;;;3.72;2.15;;;;;;;;;;7390256;19;20486;-60
2021/10/22 09:47:08;;;;;;;1.55;1.00;;;;;;;;;;7390143;19;20014;-60
2021/10/22 09:49:41;;;;;;;0.60;0.50;;;;;;;;;;7390315;19;20003;-60
2021/10/22 09:52:28;;;;;;;0.68;0.35;;;;;;;;;;7387632;19;20038;-60
2021/10/22 09:55:17;;;;;;;0.82;0.65;;;;;;;;;;7386164;19;20483;-60
2021/10/22 09:58:03;;;;;;;0.63;0.60;;;;;;;;;;7387363;19;20034;-60
2021/10/22 10:00:35;;;;;;;0.50;0.50;;;;;;;;;;7385029;19;20015;-61
2021/10/22 10:03:06;;;;;;;0.75;0.70;;;;;;;;;;7386539;19;20010;-60
2021/10/22 10:05:34;;;;;;;1.70;1.08;;;;;;;;;;7385436;19;20074;-60
2021/10/22 10:08:02;;;;;;;1.35;0.88;;;;;;;;;;7386043;19;20040;-60
2021/10/22 10:10:30;;;;;;;0.50;0.50;;;;;;;;;;7390694;19;20261;-61
2021/10/22 10:12:57;;;;;;;0.95;0.75;;;;;;;;;;7393772;19;20027;-60
2021/10/22 10:15:27;;;;;;;0.60;0.57;;;;;;;;;;7397384;19;20018;-59
2021/10/22 10:17:56;;;;;;;0.60;0.50;;;;;;;;;;7392823;19;20077;-59
2021/10/22 10:20:27;;;;;;;0.40;0.40;;;;;;;;;;7390373;19;20032;-58
2021/10/22 10:22:56;;;;;;;0.60;0.50;;;;;;;;;;7392560;19;20010;-58
2021/10/22 10:25:27;;;;;;;0.50;0.50;;;;;;;;;;7392978;19;20014;-59
2021/10/22 10:27:57;;;;;;;1.92;1.08;;;;;;;;;;7392988;19;20022;-59
2021/10/22 10:30:29;;;;;;;4.82;3.05;;;;;;;;;;7393176;19;20018;-59
2021/10/22 10:32:58;;;;;;;3.80;1.42;;;;;;;;;;7390533;19;20018;-59
2021/10/22 10:35:35;;;;;;;1.30;0.90;;;;;;;;;;7394899;19;20014;-58
2021/10/22 10:38:03;;;;;;;0.98;0.70;;;;;;;;;;7394856;19;20006;-59
2021/10/22 10:40:31;;;;;;;0.60;0.50;;;;;;;;;;7392217;19;20023;-60
2021/10/22 10:43:02;;;;;;;0.45;0.45;;;;;;;;;;7395322;19;20010;-59
2021/10/22 10:45:29;;;;;;;0.32;0.32;;;;;;;;;;7396516;19;20118;-59
2021/10/22 10:47:58;;;;;;;0.60;0.45;;;;;;;;;;7395842;19;20363;-59
2021/10/22 10:50:50;;;;;;;0.55;0.40;;;;;;;;;;7395809;19;20014;-59
2021/10/22 10:53:39;;;;;;;0.85;0.47;;;;;;;;;;7395993;19;20491;-58
2021/10/22 10:56:18;;;;;;;0.50;0.50;;;;;;;;;;7395836;19;20029;-59
2021/10/22 10:58:46;;;;;;;0.52;0.50;;;;;;;;;;7395915;19;20013;-59
2021/10/22 11:01:34;;;;;;;0.30;0.30;;;;;;;;;;7394760;19;20006;-59
2021/10/22 11:04:04;;;;;;;0.52;0.40;;;;;;;;;;7395120;19;20011;-59
2021/10/22 11:06:47;;;;;;;0.82;0.50;;;;;;;;;;7394255;19;20086;-58
2021/10/22 11:09:16;;;;;;;0.30;0.30;;;;;;;;;;7395370;19;20399;-60
2021/10/22 11:11:58;;;;;;;0.40;0.30;;;;;;;;;;7393591;19;20010;-59
2021/10/22 11:14:25;;;;;;;1.30;1.05;;;;;;;;;;7396257;19;20014;-59
2021/10/22 11:16:55;;;;;;;1.23;1.00;;;;;;;;;;7393296;19;20010;-59
2021/10/22 11:19:34;;;;;;;0.50;0.50;;;;;;;;;;7394159;19;20010;-56
2021/10/22 11:22:25;;;;;;;0.40;0.40;;;;;;;;;;7393977;19;20018;-59
2021/10/22 11:24:53;;;;;;;0.40;0.40;;;;;;;;;;7393704;19;20014;-58
2021/10/22 11:27:25;;;;;;;0.50;0.50;;;;;;;;;;7394904;19;20034;-58
2021/10/22 11:29:54;;;;;;;0.47;0.38;;;;;;;;;;7394204;19;20074;-58
2021/10/22 11:32:23;;;;;;;0.40;0.40;;;;;;;;;;7392865;19;20022;-59
2021/10/22 11:34:57;;;;;;;0.40;0.40;;;;;;;;;;7394403;19;20022;-60
2021/10/22 11:37:29;;;;;;;;;;;;;;;;;;7394536;19;20073;-59
2021/10/22 11:39:57;;;;;;;0.57;0.57;;;;;;;;;;7393073;19;19915;-59
2021/10/22 11:42:29;;;;;;;0.40;0.32;;;;;;;;;;7395173;19;20038;-59
2021/10/22 11:45:13;;;;;;;0.63;0.43;;;;;;;;;;7394006;19;20489;-59
2021/10/22 11:47:48;;;;;;;1.90;0.47;;;;;;;;;;7393764;19;20074;-59
2021/10/22 11:50:24;;;;;;;0.47;0.47;;;;;;;;;;7394690;19;20081;-59
2021/10/22 11:53:06;;;;;;;1.45;0.40;;;;;;;;;;7393312;19;20478;-58
2021/10/22 11:55:34;;;;;;;0.80;0.52;;;;;;;;;;7392572;19;20013;-59
2021/10/22 11:58:09;;;;;;;0.40;0.40;;;;;;;;;;7393296;19;20078;-59
2021/10/22 12:00:47;;;;;;;0.43;0.40;;;;;;;;;;7391767;19;20017;-59
2021/10/22 12:03:14;;;;;;;0.95;0.50;;;;;;;;;;7393551;19;20022;-60
2021/10/22 12:05:43;;;;;;;0.75;0.40;;;;;;;;;;7393180;19;20422;-59
2021/10/22 12:08:18;;;;;;;0.40;0.40;;;;;;;;;;7391173;19;20475;-59
2021/10/22 12:10:53;;;;;;;0.43;0.38;;;;;;;;;;7392880;19;20017;-59
2021/10/22 12:13:34;;;;;;;0.30;0.30;;;;;;;;;;7392927;19;20621;-58
2021/10/22 12:16:11;;;;;;;1.02;0.70;;;;;;;;;;7392762;19;20014;-59
2021/10/22 12:18:46;;;;;;;0.68;0.63;;;;;;;;;;7390596;19;20014;-59
2021/10/22 12:21:13;;;;;;;0.35;0.35;;;;;;;;;;7389665;19;20006;-59
2021/10/22 12:23:41;;;;;;;0.47;0.43;;;;;;;;;;7391792;19;20015;-57
2021/10/22 12:26:23;;;;;;;15.30;7.75;;;;;;;;;;7392809;19;20010;-58
2021/10/22 12:29:05;;;;;;;1.98;1.08;;;;;;;;;;7392865;19;20047;-59
2021/10/22 12:31:38;;;;;;;0.45;0.45;;;;;;;;;;7390697;19;20010;-59
2021/10/22 12:34:12;;;;;;;0.75;0.47;;;;;;;;;;7389775;19;20035;-58
2021/10/22 12:36:42;;;;;;;0.95;0.40;;;;;;;;;;7392492;19;20010;-59
2021/10/22 12:39:28;;;;;;;0.30;0.30;;;;;;;;;;7391404;19;20054;-59
2021/10/22 12:41:55;;;;;;;1.52;0.40;;;;;;;;;;7389660;19;20011;-59
2021/10/22 12:44:30;;;;;;;0.32;0.32;;;;;;;;;;7392310;19;20026;-57
2021/10/22 12:46:59;;;;;;;0.47;0.40;;;;;;;;;;7391263;19;20014;-59
2021/10/22 12:49:29;;;;;;;0.40;0.40;;;;;;;;;;7391570;19;20018;-61
2021/10/22 12:52:03;;;;;;;0.40;0.30;;;;;;;;;;7391893;19;20539;-62
2021/10/22 12:54:47;;;;;;;0.40;0.40;;;;;;;;;;7389900;19;20011;-62
2021/10/22 12:57:25;;;;;;;0.55;0.50;;;;;;;;;;7392687;19;20007;-61
2021/10/22 12:59:55;;;;;;;13.50;4.40;;;;;;;;;;7389582;19;20020;-62
2021/10/22 13:02:28;;;;;;;1.13;0.65;;;;;;;;;;7390999;19;20018;-62
2021/10/22 13:05:16;;;;;;;0.73;0.70;;;;;;;;;;7390553;19;20019;-64
2021/10/22 13:08:05;;;;;;;2.67;0.60;;;;;;;;;;7390662;19;20031;-61
2021/10/22 13:13:12;;;;;;;0.50;0.50;;;;;;;;;;7391042;19;20020;-61
2021/10/22 13:20:54;;;;;;;0.45;0.45;;;;;;;;;;7387942;19;20364;-61
2021/10/22 13:23:21;;;;;;;2.15;0.40;;;;;;;;;;7389638;19;20006;-61
2021/10/22 13:25:51;;;;;;;0.65;0.43;;;;;;;;;;7391155;19;20015;-61
2021/10/22 13:28:27;;;;;;;0.35;0.35;;;;;;;;;;7391305;19;20101;-62
2021/10/22 13:31:06;;;;;;;0.40;0.30;;;;;;;;;;7390147;19;20033;-62
2021/10/22 13:33:34;;;;;;;0.40;0.40;;;;;;;;;;7389147;19;20070;-62
2021/10/22 13:36:05;;;;;;;0.45;0.30;;;;;;;;;;7390742;19;20014;-63
2021/10/22 13:38:33;;;;;;;0.30;0.30;;;;;;;;;;7390409;19;20094;-62
2021/10/22 13:41:02;;;;;;;0.35;0.35;;;;;;;;;;7388014;19;20368;-62
2021/10/22 13:43:30;;;;;;;0.40;0.40;;;;;;;;;;7389827;19;20007;-62
2021/10/22 13:46:04;;;;;;;0.47;0.40;;;;;;;;;;7389728;19;20015;-62
2021/10/22 13:48:33;;;;;;;0.60;0.40;;;;;;;;;;7388914;19;20025;-61
2021/10/22 13:51:01;;;;;;;1.48;0.80;;;;;;;;;;7389257;19;20010;-61
2021/10/22 13:53:29;;;;;;;0.40;0.40;;;;;;;;;;7388751;19;20007;-63
2021/10/22 13:55:57;;;;;;;0.32;0.30;;;;;;;;;;7389469;19;20018;-62
2021/10/22 13:58:25;;;;;;;0.50;0.40;;;;;;;;;;7389326;19;20017;-62
2021/10/22 14:00:52;;;;;;;0.55;0.47;;;;;;;;;;7388355;19;20014;-62
2021/10/22 14:03:20;;;;;;;1.08;0.50;;;;;;;;;;7387962;19;20483;-61
2021/10/22 14:05:47;;;;;;;0.38;0.30;;;;;;;;;;7389918;19;20011;-62
2021/10/22 14:08:15;;;;;;;0.52;0.50;;;;;;;;;;7389762;19;20024;-61
2021/10/22 14:10:44;;;;;;;1.75;0.30;;;;;;;;;;7389232;19;20018;-60
2021/10/22 14:29:12;;;;;;;0.60;0.40;;;;;;;;;;7389335;19;20015;-62
2021/10/22 14:31:40;;;;;;;142.02;52.67;;;;;;;;;;7388290;19;20408;-62
2021/10/22 14:34:08;;;;;;;3.22;1.63;;;;;;;;;;7388735;19;20024;-64
2021/10/22 14:36:41;;;;;;;;;;;;;;;;;;7389628;19;20718;-62
2021/10/22 14:39:09;;;;;;;0.40;0.40;;;;;;;;;;7388344;19;19925;-63
2021/10/22 14:41:39;;;;;;;0.60;0.50;;;;;;;;;;7385602;19;20011;-61
2021/10/22 14:44:08;;;;;;;0.75;0.75;;;;;;;;;;7388688;19;20033;-61
2021/10/22 14:46:58;;;;;;;0.40;0.40;;;;;;;;;;7387484;19;20502;-61
2021/10/22 14:49:32;;;;;;;0.95;0.30;;;;;;;;;;7383245;19;20015;-60
2021/10/22 14:52:23;;;;;;;0.40;0.30;;;;;;;;;;7385040;19;20023;-60
2021/10/22 14:54:52;;;;;;;0.25;0.25;;;;;;;;;;7387159;19;20497;-61
2021/10/22 14:57:20;;;;;;;0.30;0.30;;;;;;;;;;7391234;19;20014;-60
2021/10/22 14:59:47;;;;;;;0.60;0.60;;;;;;;;;;7393200;19;20031;-62
2021/10/22 15:02:15;;;;;;;0.30;0.30;;;;;;;;;;7394100;19;20102;-61
2021/10/22 15:04:45;;;;;;;0.22;0.22;;;;;;;;;;7394743;19;20035;-61
2021/10/22 15:07:14;;;;;;;0.40;0.40;;;;;;;;;;7394265;19;20743;-61
2021/10/22 15:09:42;;;;;;;0.35;0.35;;;;;;;;;;7395435;19;20183;-60
2021/10/22 15:12:09;;;;;;;0.40;0.40;;;;;;;;;;7394378;19;20018;-60
2021/10/22 15:14:37;;;;;;;0.45;0.45;;;;;;;;;;7394934;19;20006;-61
2021/10/22 15:17:05;;;;;;;0.43;0.40;;;;;;;;;;7394028;19;20018;-60
2021/10/22 15:19:36;;;;;;;0.55;0.50;;;;;;;;;;7396543;19;20006;-61
2021/10/22 15:22:04;;;;;;;0.75;0.60;;;;;;;;;;7393402;19;20011;-60
2021/10/22 15:24:32;;;;;;;0.40;0.40;;;;;;;;;;7393804;19;20006;-61
2021/10/22 15:27:02;;;;;;;0.40;0.40;;;;;;;;;;7394410;19;20105;-60
2021/10/22 15:29:30;;;;;;;0.57;0.47;;;;;;;;;;7393944;19;20025;-60
2021/10/22 15:31:57;;;;;;;0.60;0.60;;;;;;;;;;7392344;19;20082;-60